<?xml version="1.0" encoding="UTF-8" standalone="no" ?>
<gpx xmlns="http://www.topografix.com/GPX/1/1" xmlns:xsi="http://www.w3.org/2001/XMLSchema-instance" xsi:schemaLocation="http://www.topografix.com/GPX/1/1 http://www.topografix.com/GPX/1/1/gpx.xsd" version="1.1" creator="VisuGPX - https://www.visugpx.com">
  <metadata>
    <name>13037794-Mauvezin_Dodet_Pelerinages_Vues</name>
  </metadata>
  <trk>
    <name><![CDATA[13037794-Mauvezin_Dodet_Pelerinages_Vues]]></name>
    <extensions>
      <line xmlns="http://www.topografix.com/GPX/gpx_style/0/2">
        <color>0000FF</color>
        <width>4</width>
      </line>
    </extensions>
    <trkseg>
      <trkpt lat="43.73156" lon="0.8717">
        <ele>126</ele>
        <time>2021-05-11T14:32:57Z</time>
      </trkpt>
      <trkpt lat="43.73124" lon="0.87408">
        <ele>129</ele>
        <time>2021-05-11T14:36:50Z</time>
      </trkpt>
      <trkpt lat="43.73197" lon="0.87426">
        <ele>129</ele>
        <time>2021-05-11T14:38:29Z</time>
      </trkpt>
      <trkpt lat="43.73207" lon="0.87456">
        <ele>129</ele>
        <time>2021-05-11T14:39:01Z</time>
      </trkpt>
      <trkpt lat="43.73363" lon="0.87629">
        <ele>139</ele>
        <time>2021-05-11T14:43:28Z</time>
      </trkpt>
      <trkpt lat="43.73378" lon="0.87749">
        <ele>144</ele>
        <time>2021-05-11T14:45:25Z</time>
      </trkpt>
      <trkpt lat="43.73341" lon="0.87865">
        <ele>149</ele>
        <time>2021-05-11T14:47:28Z</time>
      </trkpt>
      <trkpt lat="43.73333" lon="0.88073">
        <ele>159</ele>
        <time>2021-05-11T14:50:49Z</time>
      </trkpt>
      <trkpt lat="43.73372" lon="0.88141">
        <ele>162</ele>
        <time>2021-05-11T14:52:12Z</time>
      </trkpt>
      <trkpt lat="43.73465" lon="0.88363">
        <ele>176</ele>
        <time>2021-05-11T14:56:20Z</time>
      </trkpt>
      <trkpt lat="43.73609" lon="0.88486">
        <ele>180</ele>
        <time>2021-05-11T15:00:06Z</time>
      </trkpt>
      <trkpt lat="43.73755" lon="0.88547">
        <ele>178</ele>
        <time>2021-05-11T15:03:29Z</time>
      </trkpt>
      <trkpt lat="43.73937" lon="0.88561">
        <ele>175</ele>
        <time>2021-05-11T15:07:32Z</time>
      </trkpt>
      <trkpt lat="43.74192" lon="0.88596">
        <ele>171</ele>
        <time>2021-05-11T15:13:14Z</time>
      </trkpt>
      <trkpt lat="43.74328" lon="0.88688">
        <ele>167</ele>
        <time>2021-05-11T15:16:36Z</time>
      </trkpt>
      <trkpt lat="43.74363" lon="0.88764">
        <ele>166</ele>
        <time>2021-05-11T15:18:03Z</time>
      </trkpt>
      <trkpt lat="43.7444" lon="0.88562">
        <ele>170</ele>
        <time>2021-05-11T15:21:43Z</time>
      </trkpt>
      <trkpt lat="43.7462" lon="0.88471">
        <ele>171</ele>
        <time>2021-05-11T15:25:59Z</time>
      </trkpt>
      <trkpt lat="43.74803" lon="0.88426">
        <ele>167</ele>
        <time>2021-05-11T15:30:07Z</time>
      </trkpt>
      <trkpt lat="43.74927" lon="0.88468">
        <ele>168</ele>
        <time>2021-05-11T15:32:57Z</time>
      </trkpt>
      <trkpt lat="43.75163" lon="0.88539">
        <ele>172</ele>
        <time>2021-05-11T15:38:20Z</time>
      </trkpt>
      <trkpt lat="43.75403" lon="0.88582">
        <ele>173</ele>
        <time>2021-05-11T15:43:43Z</time>
      </trkpt>
      <trkpt lat="43.75769" lon="0.88485">
        <ele>169</ele>
        <time>2021-05-11T15:52:00Z</time>
      </trkpt>
      <trkpt lat="43.75908" lon="0.88447">
        <ele>170</ele>
        <time>2021-05-11T15:55:09Z</time>
      </trkpt>
      <trkpt lat="43.76264" lon="0.88504">
        <ele>165</ele>
        <time>2021-05-11T16:03:07Z</time>
      </trkpt>
      <trkpt lat="43.76593" lon="0.88584">
        <ele>167</ele>
        <time>2021-05-11T16:10:33Z</time>
      </trkpt>
      <trkpt lat="43.76751" lon="0.88586">
        <ele>169</ele>
        <time>2021-05-11T16:14:04Z</time>
      </trkpt>
      <trkpt lat="43.7688" lon="0.88552">
        <ele>164</ele>
        <time>2021-05-11T16:16:59Z</time>
      </trkpt>
      <trkpt lat="43.77064" lon="0.88511">
        <ele>160</ele>
        <time>2021-05-11T16:21:08Z</time>
      </trkpt>
      <trkpt lat="43.77116" lon="0.88019">
        <ele>183</ele>
        <time>2021-05-11T16:29:07Z</time>
      </trkpt>
      <trkpt lat="43.77046" lon="0.87858">
        <ele>174</ele>
        <time>2021-05-11T16:32:08Z</time>
      </trkpt>
      <trkpt lat="43.76983" lon="0.87256">
        <ele>134</ele>
        <time>2021-05-11T16:41:54Z</time>
      </trkpt>
      <trkpt lat="43.77122" lon="0.87092">
        <ele>130</ele>
        <time>2021-05-11T16:45:58Z</time>
      </trkpt>
      <trkpt lat="43.77226" lon="0.86977">
        <ele>128</ele>
        <time>2021-05-11T16:48:55Z</time>
      </trkpt>
      <trkpt lat="43.77382" lon="0.86901">
        <ele>128</ele>
        <time>2021-05-11T16:52:36Z</time>
      </trkpt>
      <trkpt lat="43.77297" lon="0.8679">
        <ele>118</ele>
        <time>2021-05-11T16:55:12Z</time>
      </trkpt>
      <trkpt lat="43.77291" lon="0.86535">
        <ele>118</ele>
        <time>2021-05-11T16:59:18Z</time>
      </trkpt>
      <trkpt lat="43.77141" lon="0.86134">
        <ele>125</ele>
        <time>2021-05-11T17:06:33Z</time>
      </trkpt>
      <trkpt lat="43.7706" lon="0.85923">
        <ele>127</ele>
        <time>2021-05-11T17:10:23Z</time>
      </trkpt>
      <trkpt lat="43.77016" lon="0.85919">
        <ele>135</ele>
        <time>2021-05-11T17:11:22Z</time>
      </trkpt>
      <trkpt lat="43.76957" lon="0.85705">
        <ele>144</ele>
        <time>2021-05-11T17:15:03Z</time>
      </trkpt>
      <trkpt lat="43.76912" lon="0.85628">
        <ele>151</ele>
        <time>2021-05-11T17:16:38Z</time>
      </trkpt>
      <trkpt lat="43.76925" lon="0.85496">
        <ele>150</ele>
        <time>2021-05-11T17:18:47Z</time>
      </trkpt>
      <trkpt lat="43.76835" lon="0.85537">
        <ele>154</ele>
        <time>2021-05-11T17:20:53Z</time>
      </trkpt>
      <trkpt lat="43.76776" lon="0.8545">
        <ele>157</ele>
        <time>2021-05-11T17:22:48Z</time>
      </trkpt>
      <trkpt lat="43.76782" lon="0.85423">
        <ele>158</ele>
        <time>2021-05-11T17:23:15Z</time>
      </trkpt>
      <trkpt lat="43.76769" lon="0.85225">
        <ele>154</ele>
        <time>2021-05-11T17:26:27Z</time>
      </trkpt>
      <trkpt lat="43.76702" lon="0.85067">
        <ele>153</ele>
        <time>2021-05-11T17:29:24Z</time>
      </trkpt>
      <trkpt lat="43.76691" lon="0.8508">
        <ele>154</ele>
        <time>2021-05-11T17:29:43Z</time>
      </trkpt>
      <trkpt lat="43.76725" lon="0.84965">
        <ele>147</ele>
        <time>2021-05-11T17:31:43Z</time>
      </trkpt>
      <trkpt lat="43.76677" lon="0.84832">
        <ele>150</ele>
        <time>2021-05-11T17:34:06Z</time>
      </trkpt>
      <trkpt lat="43.76683" lon="0.84762">
        <ele>147</ele>
        <time>2021-05-11T17:35:14Z</time>
      </trkpt>
      <trkpt lat="43.76648" lon="0.84693">
        <ele>147</ele>
        <time>2021-05-11T17:36:35Z</time>
      </trkpt>
      <trkpt lat="43.76599" lon="0.84603">
        <ele>146</ele>
        <time>2021-05-11T17:38:24Z</time>
      </trkpt>
      <trkpt lat="43.7659" lon="0.84589">
        <ele>146</ele>
        <time>2021-05-11T17:38:42Z</time>
      </trkpt>
      <trkpt lat="43.76505" lon="0.84565">
        <ele>147</ele>
        <time>2021-05-11T17:40:38Z</time>
      </trkpt>
      <trkpt lat="43.76448" lon="0.84552">
        <ele>148</ele>
        <time>2021-05-11T17:41:55Z</time>
      </trkpt>
      <trkpt lat="43.764" lon="0.84465">
        <ele>145</ele>
        <time>2021-05-11T17:43:40Z</time>
      </trkpt>
      <trkpt lat="43.76389" lon="0.84409">
        <ele>144</ele>
        <time>2021-05-11T17:44:36Z</time>
      </trkpt>
      <trkpt lat="43.76444" lon="0.84327">
        <ele>144</ele>
        <time>2021-05-11T17:46:24Z</time>
      </trkpt>
      <trkpt lat="43.76312" lon="0.84399">
        <ele>149</ele>
        <time>2021-05-11T17:49:33Z</time>
      </trkpt>
      <trkpt lat="43.76352" lon="0.8424">
        <ele>146</ele>
        <time>2021-05-11T17:52:16Z</time>
      </trkpt>
      <trkpt lat="43.76238" lon="0.84118">
        <ele>147</ele>
        <time>2021-05-11T17:55:28Z</time>
      </trkpt>
      <trkpt lat="43.76105" lon="0.84046">
        <ele>147</ele>
        <time>2021-05-11T17:58:38Z</time>
      </trkpt>
      <trkpt lat="43.76087" lon="0.84199">
        <ele>151</ele>
        <time>2021-05-11T18:01:08Z</time>
      </trkpt>
      <trkpt lat="43.76065" lon="0.84291">
        <ele>154</ele>
        <time>2021-05-11T18:02:41Z</time>
      </trkpt>
      <trkpt lat="43.75792" lon="0.84735">
        <ele>169</ele>
        <time>2021-05-11T18:12:03Z</time>
      </trkpt>
      <trkpt lat="43.75719" lon="0.84973">
        <ele>178</ele>
        <time>2021-05-11T18:16:12Z</time>
      </trkpt>
      <trkpt lat="43.75737" lon="0.852">
        <ele>176</ele>
        <time>2021-05-11T18:19:53Z</time>
      </trkpt>
      <trkpt lat="43.75589" lon="0.85123">
        <ele>183</ele>
        <time>2021-05-11T18:23:24Z</time>
      </trkpt>
      <trkpt lat="43.75434" lon="0.85047">
        <ele>173</ele>
        <time>2021-05-11T18:27:03Z</time>
      </trkpt>
      <trkpt lat="43.75217" lon="0.84832">
        <ele>177</ele>
        <time>2021-05-11T18:32:59Z</time>
      </trkpt>
      <trkpt lat="43.7497" lon="0.8496">
        <ele>168</ele>
        <time>2021-05-11T18:38:51Z</time>
      </trkpt>
      <trkpt lat="43.748" lon="0.85281">
        <ele>188</ele>
        <time>2021-05-11T18:45:15Z</time>
      </trkpt>
      <trkpt lat="43.74623" lon="0.85128">
        <ele>188</ele>
        <time>2021-05-11T18:49:53Z</time>
      </trkpt>
      <trkpt lat="43.74352" lon="0.84732">
        <ele>181</ele>
        <time>2021-05-11T18:58:39Z</time>
      </trkpt>
      <trkpt lat="43.74313" lon="0.84698">
        <ele>178</ele>
        <time>2021-05-11T18:59:41Z</time>
      </trkpt>
      <trkpt lat="43.74368" lon="0.84535">
        <ele>187</ele>
        <time>2021-05-11T19:02:34Z</time>
      </trkpt>
      <trkpt lat="43.74314" lon="0.8439">
        <ele>188</ele>
        <time>2021-05-11T19:05:11Z</time>
      </trkpt>
      <trkpt lat="43.74291" lon="0.84321">
        <ele>187</ele>
        <time>2021-05-11T19:06:25Z</time>
      </trkpt>
      <trkpt lat="43.7413" lon="0.84114">
        <ele>188</ele>
        <time>2021-05-11T19:11:18Z</time>
      </trkpt>
      <trkpt lat="43.73986" lon="0.84029">
        <ele>190</ele>
        <time>2021-05-11T19:14:47Z</time>
      </trkpt>
      <trkpt lat="43.73738" lon="0.83956">
        <ele>201</ele>
        <time>2021-05-11T19:20:25Z</time>
      </trkpt>
      <trkpt lat="43.73669" lon="0.84495">
        <ele>202</ele>
        <time>2021-05-11T19:29:13Z</time>
      </trkpt>
      <trkpt lat="43.73463" lon="0.84983">
        <ele>197</ele>
        <time>2021-05-11T19:38:18Z</time>
      </trkpt>
      <trkpt lat="43.73372" lon="0.85288">
        <ele>197</ele>
        <time>2021-05-11T19:43:36Z</time>
      </trkpt>
      <trkpt lat="43.73323" lon="0.85546">
        <ele>184</ele>
        <time>2021-05-11T19:47:53Z</time>
      </trkpt>
      <trkpt lat="43.73269" lon="0.85685">
        <ele>170</ele>
        <time>2021-05-11T19:50:25Z</time>
      </trkpt>
      <trkpt lat="43.73163" lon="0.86006">
        <ele>146</ele>
        <time>2021-05-11T19:56:06Z</time>
      </trkpt>
      <trkpt lat="43.73133" lon="0.86124">
        <ele>149</ele>
        <time>2021-05-11T19:58:06Z</time>
      </trkpt>
      <trkpt lat="43.73163" lon="0.86257">
        <ele>149</ele>
        <time>2021-05-11T20:00:21Z</time>
      </trkpt>
      <trkpt lat="43.73138" lon="0.8638">
        <ele>146</ele>
        <time>2021-05-11T20:02:24Z</time>
      </trkpt>
      <trkpt lat="43.73179" lon="0.86569">
        <ele>138</ele>
        <time>2021-05-11T20:05:34Z</time>
      </trkpt>
      <trkpt lat="43.73152" lon="0.87149">
        <ele>126</ele>
        <time>2021-05-11T20:14:55Z</time>
      </trkpt>
    </trkseg>
  </trk>
</gpx>